Time;durP1;ratioP1;P1;durP2;ratioP2;P2;SDS_P1;SDS_P2;PMS_P1;PMS_P2;Temp;Humidity;BMP_temperature;BMP_pressure;BME280_temperature;BME280_humidity;BME280_pressure;Samples;Min_cycle;Max_cycle;Signal;HPM_P1;HPM_P2
2023/05/08 00:00:23;;;;;;;15.40;14.00;;;;;;;;;;4939174;29;20419;-75
2023/05/08 00:02:49;;;;;;;16.03;14.70;;;;;;;;;;4946152;29;20839;-74
2023/05/08 00:05:19;;;;;;;16.33;14.93;;;;;;;;;;4945653;29;20907;-75
2023/05/08 00:07:45;;;;;;;16.03;14.53;;;;;;;;;;4945768;29;21005;-75
2023/05/08 00:10:11;;;;;;;18.17;15.20;;;;;;;;;;4948835;29;20412;-75
2023/05/08 00:12:37;;;;;;;16.73;14.97;;;;;;;;;;4945296;29;20478;-74
2023/05/08 00:15:04;;;;;;;17.57;15.87;;;;;;;;;;4940734;29;20491;-74
2023/05/08 00:17:30;;;;;;;16.33;14.73;;;;;;;;;;4944497;29;20953;-75
2023/05/08 00:19:56;;;;;;;17.83;16.13;;;;;;;;;;4949225;29;20426;-74
2023/05/08 00:22:25;;;;;;;17.77;16.07;;;;;;;;;;4944488;29;20732;-75
2023/05/08 00:24:51;;;;;;;16.17;14.83;;;;;;;;;;4939979;29;20494;-76
2023/05/08 00:27:17;;;;;;;17.80;16.30;;;;;;;;;;4948544;29;20430;-76
2023/05/08 00:29:43;;;;;;;17.27;15.80;;;;;;;;;;4944249;28;20803;-76
2023/05/08 00:32:09;;;;;;;18.27;16.47;;;;;;;;;;4948781;29;20477;-74
2023/05/08 00:34:35;;;;;;;17.20;15.47;;;;;;;;;;4946468;29;20486;-75
2023/05/08 00:37:02;;;;;;;15.60;14.00;;;;;;;;;;4949108;29;21008;-75
2023/05/08 00:39:28;;;;;;;15.60;14.17;;;;;;;;;;4944981;29;20473;-75
2023/05/08 00:41:54;;;;;;;24.17;16.80;;;;;;;;;;4913838;29;20447;-75
2023/05/08 00:44:21;;;;;;;17.47;15.77;;;;;;;;;;4924816;29;20546;-75
2023/05/08 00:46:47;;;;;;;19.40;16.77;;;;;;;;;;4930678;29;20431;-75
2023/05/08 00:49:13;;;;;;;19.63;16.13;;;;;;;;;;4925511;29;20939;-75
2023/05/08 00:51:42;;;;;;;16.50;14.90;;;;;;;;;;4918804;29;20971;-75
2023/05/08 00:54:08;;;;;;;19.97;18.00;;;;;;;;;;4916906;29;20463;-75
2023/05/08 00:56:35;;;;;;;17.03;15.23;;;;;;;;;;4928748;29;20436;-75
2023/05/08 00:59:01;;;;;;;18.37;16.67;;;;;;;;;;4925752;29;20481;-75
2023/05/08 01:01:27;;;;;;;18.47;16.53;;;;;;;;;;4931309;29;20439;-75
2023/05/08 01:03:54;;;;;;;19.60;17.53;;;;;;;;;;4925147;29;20966;-75
2023/05/08 01:06:20;;;;;;;18.53;16.57;;;;;;;;;;4915736;29;20432;-74
2023/05/08 01:08:46;;;;;;;19.67;16.87;;;;;;;;;;4917902;29;20435;-74
2023/05/08 01:11:23;;;;;;;19.73;17.37;;;;;;;;;;4929289;29;21025;-74
2023/05/08 01:14:07;;;;;;;19.30;17.33;;;;;;;;;;4921005;29;20462;-75
2023/05/08 01:16:44;;;;;;;19.93;17.90;;;;;;;;;;4926903;29;20807;-74
2023/05/08 01:19:45;;;;;;;20.47;17.70;;;;;;;;;;4925549;29;20438;-75
2023/05/08 01:22:16;;;;;;;24.10;19.33;;;;;;;;;;4862422;29;20467;-75
2023/05/08 01:25:01;;;;;;;21.83;19.70;;;;;;;;;;4909039;29;20959;-75
2023/05/08 01:27:46;;;;;;;23.03;18.93;;;;;;;;;;4921802;29;20467;-75
2023/05/08 01:30:18;;;;;;;21.90;19.33;;;;;;;;;;4928675;29;20431;-75
2023/05/08 01:32:50;;;;;;;23.63;21.13;;;;;;;;;;4925033;29;20518;-75
2023/05/08 01:35:36;;;;;;;22.43;20.20;;;;;;;;;;4918726;29;20428;-75
2023/05/08 01:38:08;;;;;;;21.10;19.00;;;;;;;;;;4915160;29;20494;-75
2023/05/08 01:40:34;;;;;;;21.97;19.60;;;;;;;;;;4937272;29;20552;-75
2023/05/08 01:43:13;;;;;;;21.13;18.93;;;;;;;;;;4941582;29;20449;-74
2023/05/08 01:45:40;;;;;;;20.77;18.47;;;;;;;;;;4942273;29;20466;-75
2023/05/08 01:48:11;;;;;;;30.80;19.60;;;;;;;;;;4943206;29;20439;-75
2023/05/08 01:50:42;;;;;;;22.73;20.30;;;;;;;;;;4946594;29;20445;-74
2023/05/08 01:53:17;;;;;;;20.70;18.40;;;;;;;;;;4944526;29;20816;-75
2023/05/08 01:55:44;;;;;;;22.27;19.83;;;;;;;;;;4947686;29;20429;-75
2023/05/08 01:58:11;;;;;;;22.17;19.87;;;;;;;;;;4943524;29;20796;-75
2023/05/08 02:00:39;;;;;;;23.53;20.03;;;;;;;;;;4943062;29;20431;-74
2023/05/08 02:03:06;;;;;;;27.43;21.20;;;;;;;;;;4938180;29;20443;-75
2023/05/08 02:05:32;;;;;;;22.93;19.20;;;;;;;;;;4941700;29;20433;-75
2023/05/08 02:07:59;;;;;;;24.07;21.67;;;;;;;;;;4943798;29;20937;-75
2023/05/08 02:10:26;;;;;;;22.30;19.93;;;;;;;;;;4948275;29;20473;-75
2023/05/08 02:12:53;;;;;;;24.23;21.40;;;;;;;;;;4943842;29;20477;-75
2023/05/08 02:15:20;;;;;;;22.10;20.00;;;;;;;;;;4944774;29;20429;-75
2023/05/08 02:17:48;;;;;;;27.77;22.43;;;;;;;;;;4947388;29;20473;-75
2023/05/08 02:20:15;;;;;;;24.93;22.00;;;;;;;;;;4952244;29;20514;-75
2023/05/08 02:22:45;;;;;;;22.10;19.73;;;;;;;;;;4946368;29;20468;-75
2023/05/08 02:25:13;;;;;;;25.60;21.47;;;;;;;;;;4951819;29;20426;-75
2023/05/08 02:27:42;;;;;;;26.37;21.00;;;;;;;;;;4948649;29;20967;-75
2023/05/08 02:30:08;;;;;;;22.43;19.73;;;;;;;;;;4951473;28;20457;-75
2023/05/08 02:32:34;;;;;;;21.37;19.13;;;;;;;;;;4947239;29;20473;-74
2023/05/08 02:35:00;;;;;;;22.53;20.17;;;;;;;;;;4943008;29;20776;-74
2023/05/08 02:37:27;;;;;;;23.37;19.50;;;;;;;;;;4946581;29;20475;-75
2023/05/08 02:39:55;;;;;;;22.40;20.00;;;;;;;;;;4950398;29;20875;-75
2023/05/08 02:42:21;;;;;;;23.40;21.00;;;;;;;;;;4946838;29;20426;-75
2023/05/08 02:44:47;;;;;;;22.67;20.37;;;;;;;;;;4943479;29;20438;-75
2023/05/08 02:47:25;;;;;;;21.43;19.13;;;;;;;;;;4949609;29;20441;-75
2023/05/08 02:49:54;;;;;;;21.87;18.90;;;;;;;;;;4950118;29;20807;-75
2023/05/08 02:52:31;;;;;;;23.47;20.93;;;;;;;;;;4945495;29;20466;-75
2023/05/08 02:55:30;;;;;;;22.03;19.73;;;;;;;;;;4947892;29;20437;-75
2023/05/08 02:57:59;;;;;;;23.17;20.43;;;;;;;;;;4928083;29;20438;-75
2023/05/08 03:00:31;;;;;;;26.00;21.23;;;;;;;;;;4938279;29;20884;-76
2023/05/08 03:03:00;;;;;;;26.83;21.57;;;;;;;;;;4941748;29;20413;-76
2023/05/08 03:05:27;;;;;;;25.10;21.57;;;;;;;;;;4935678;29;20470;-75
2023/05/08 03:07:54;;;;;;;25.80;21.30;;;;;;;;;;4942296;29;20468;-75
2023/05/08 03:10:21;;;;;;;22.37;20.07;;;;;;;;;;4942254;29;20434;-76
2023/05/08 03:12:49;;;;;;;23.20;20.67;;;;;;;;;;4948069;29;20484;-75
2023/05/08 03:15:22;;;;;;;24.00;19.63;;;;;;;;;;4941265;29;21119;-75
2023/05/08 03:17:51;;;;;;;22.90;20.43;;;;;;;;;;4942090;29;20426;-75
2023/05/08 03:20:18;;;;;;;25.73;21.40;;;;;;;;;;4935628;29;20923;-75
2023/05/08 03:22:47;;;;;;;24.13;20.80;;;;;;;;;;4939680;29;20780;-75
2023/05/08 03:25:14;;;;;;;25.10;21.80;;;;;;;;;;4945376;28;20499;-74
2023/05/08 03:27:41;;;;;;;22.70;20.30;;;;;;;;;;4950092;28;20513;-75
2023/05/08 03:30:08;;;;;;;26.33;23.73;;;;;;;;;;4944610;28;20478;-74
2023/05/08 03:32:34;;;;;;;24.30;21.70;;;;;;;;;;4942340;29;20459;-75
2023/05/08 03:35:01;;;;;;;23.00;19.73;;;;;;;;;;4946476;29;20426;-75
2023/05/08 03:37:27;;;;;;;27.67;22.10;;;;;;;;;;4938221;29;20427;-75
2023/05/08 03:39:54;;;;;;;23.23;20.70;;;;;;;;;;4936931;29;20459;-74
2023/05/08 03:42:20;;;;;;;25.07;20.07;;;;;;;;;;4945890;29;20437;-75
2023/05/08 03:44:57;;;;;;;23.40;19.27;;;;;;;;;;4942570;29;20808;-74
2023/05/08 03:47:26;;;;;;;22.60;19.77;;;;;;;;;;4944574;29;20421;-75
2023/05/08 03:49:53;;;;;;;24.50;20.63;;;;;;;;;;4940786;29;20426;-75
2023/05/08 03:52:19;;;;;;;26.93;21.07;;;;;;;;;;4949029;29;20482;-74
2023/05/08 03:54:45;;;;;;;25.77;22.00;;;;;;;;;;4949434;29;20426;-75
2023/05/08 03:57:11;;;;;;;24.30;21.20;;;;;;;;;;4929109;29;20893;-75
2023/05/08 03:59:46;;;;;;;27.10;20.17;;;;;;;;;;4932633;29;20450;-75
2023/05/08 04:02:25;;;;;;;28.43;20.57;;;;;;;;;;4938152;29;20652;-75
2023/05/08 04:04:54;;;;;;;26.60;20.80;;;;;;;;;;4942048;29;20442;-76
2023/05/08 04:07:36;;;;;;;24.83;20.63;;;;;;;;;;4941286;29;20445;-75
2023/05/08 04:10:03;;;;;;;23.30;19.70;;;;;;;;;;4940852;29;20461;-75
2023/05/08 04:12:38;;;;;;;23.53;20.83;;;;;;;;;;4935558;29;20473;-75
2023/05/08 04:15:07;;;;;;;27.97;21.43;;;;;;;;;;4943261;29;20434;-75
2023/05/08 04:17:42;;;;;;;27.47;21.50;;;;;;;;;;4941005;29;20468;-75
2023/05/08 04:20:11;;;;;;;25.60;20.90;;;;;;;;;;4935289;29;20453;-77
2023/05/08 04:22:38;;;;;;;24.33;21.67;;;;;;;;;;4944226;29;20493;-74
2023/05/08 04:25:05;;;;;;;25.60;21.80;;;;;;;;;;4945401;29;20779;-75
2023/05/08 04:27:32;;;;;;;22.60;20.07;;;;;;;;;;4946603;29;20445;-75
2023/05/08 04:29:58;;;;;;;25.37;21.00;;;;;;;;;;4937023;28;20455;-74
2023/05/08 04:32:24;;;;;;;27.77;20.03;;;;;;;;;;4948720;28;20786;-75
2023/05/08 04:34:50;;;;;;;25.60;21.80;;;;;;;;;;4946119;29;20438;-74
2023/05/08 04:37:24;;;;;;;28.67;21.70;;;;;;;;;;4944868;29;20517;-75
2023/05/08 04:39:51;;;;;;;23.17;20.70;;;;;;;;;;4941786;29;20461;-76
2023/05/08 04:42:17;;;;;;;21.17;19.00;;;;;;;;;;4930413;29;20430;-75
2023/05/08 04:44:46;;;;;;;25.37;21.03;;;;;;;;;;4945342;29;20573;-75
2023/05/08 04:47:12;;;;;;;21.03;18.70;;;;;;;;;;4946533;29;20442;-76
2023/05/08 04:49:38;;;;;;;20.27;18.07;;;;;;;;;;4945806;29;20919;-75
2023/05/08 04:52:05;;;;;;;19.73;17.23;;;;;;;;;;4946504;29;20532;-75
2023/05/08 04:54:31;;;;;;;19.27;17.37;;;;;;;;;;4946132;29;20438;-75
2023/05/08 04:56:57;;;;;;;20.40;16.97;;;;;;;;;;4936980;29;20446;-75
2023/05/08 04:59:26;;;;;;;20.80;18.53;;;;;;;;;;4943407;29;20472;-75
2023/05/08 05:01:52;;;;;;;22.20;19.73;;;;;;;;;;4943708;29;20438;-76
2023/05/08 05:04:18;;;;;;;22.93;19.20;;;;;;;;;;4940456;29;20453;-75
2023/05/08 05:06:44;;;;;;;21.83;19.53;;;;;;;;;;4944958;29;20498;-75
2023/05/08 05:09:10;;;;;;;20.47;18.30;;;;;;;;;;4946059;29;20858;-76
2023/05/08 05:11:36;;;;;;;20.80;18.63;;;;;;;;;;4946041;29;21148;-75
2023/05/08 05:14:03;;;;;;;20.33;18.17;;;;;;;;;;4941264;29;20820;-75
2023/05/08 05:16:29;;;;;;;20.50;18.37;;;;;;;;;;4937987;29;20883;-75
2023/05/08 05:18:55;;;;;;;19.90;17.67;;;;;;;;;;4937375;29;20517;-75
2023/05/08 05:21:21;;;;;;;19.60;17.57;;;;;;;;;;4926191;29;20441;-75
2023/05/08 05:23:47;;;;;;;21.03;18.83;;;;;;;;;;4943058;29;20807;-75
2023/05/08 05:26:13;;;;;;;22.07;19.80;;;;;;;;;;4934844;28;20419;-75
2023/05/08 05:28:39;;;;;;;19.70;17.63;;;;;;;;;;4938154;29;20438;-75
2023/05/08 05:31:05;;;;;;;20.13;18.03;;;;;;;;;;4945702;29;20473;-74
2023/05/08 05:33:31;;;;;;;20.57;18.47;;;;;;;;;;4944733;29;20430;-74
2023/05/08 05:35:57;;;;;;;20.30;18.20;;;;;;;;;;4936179;29;21054;-76
2023/05/08 05:38:23;;;;;;;19.30;17.37;;;;;;;;;;4934629;29;20453;-76
2023/05/08 05:40:49;;;;;;;19.03;17.07;;;;;;;;;;4948139;29;20528;-75
2023/05/08 05:43:16;;;;;;;18.10;16.50;;;;;;;;;;4940329;29;20892;-74
2023/05/08 05:45:42;;;;;;;18.47;16.53;;;;;;;;;;4931376;29;20422;-75
2023/05/08 05:48:08;;;;;;;19.57;17.47;;;;;;;;;;4933660;29;20422;-76
2023/05/08 05:50:34;;;;;;;18.47;16.77;;;;;;;;;;4942017;29;20423;-74
2023/05/08 05:53:00;;;;;;;18.73;16.87;;;;;;;;;;4936229;29;20471;-74
2023/05/08 05:55:27;;;;;;;18.20;16.40;;;;;;;;;;4941925;29;20415;-75
2023/05/08 05:57:52;;;;;;;14.73;13.43;;;;;;;;;;4931650;29;20432;-76
2023/05/08 06:00:20;;;;;;;16.20;14.50;;;;;;;;;;4930528;29;20427;-74
2023/05/08 06:02:46;;;;;;;15.23;13.67;;;;;;;;;;4940062;29;20418;-75
2023/05/08 06:05:12;;;;;;;19.10;17.27;;;;;;;;;;4933725;29;20442;-77
2023/05/08 06:07:38;;;;;;;15.30;14.00;;;;;;;;;;4944823;29;20431;-75
2023/05/08 06:10:04;;;;;;;12.70;11.40;;;;;;;;;;4939840;29;20485;-75
2023/05/08 06:12:31;;;;;;;12.83;11.73;;;;;;;;;;4943024;29;20946;-75
2023/05/08 06:14:57;;;;;;;14.87;13.47;;;;;;;;;;4951191;29;20446;-75
2023/05/08 06:17:23;;;;;;;10.10;9.47;;;;;;;;;;4944774;29;20441;-75
2023/05/08 06:19:52;;;;;;;12.40;11.40;;;;;;;;;;4944114;29;20445;-75
2023/05/08 06:22:19;;;;;;;14.27;13.00;;;;;;;;;;4937879;29;20982;-75
2023/05/08 06:24:45;;;;;;;13.70;12.67;;;;;;;;;;4927529;29;21097;-76
2023/05/08 06:27:11;;;;;;;14.23;12.83;;;;;;;;;;4941204;29;20476;-76
2023/05/08 06:29:37;;;;;;;15.70;14.30;;;;;;;;;;4934061;29;20466;-74
2023/05/08 06:32:03;;;;;;;15.47;14.17;;;;;;;;;;4939828;29;20473;-76
2023/05/08 06:34:30;;;;;;;15.90;14.70;;;;;;;;;;4940959;29;20454;-76
2023/05/08 06:36:56;;;;;;;14.50;13.30;;;;;;;;;;4938686;29;20435;-75
2023/05/08 06:39:22;;;;;;;13.03;12.10;;;;;;;;;;4934941;29;20501;-75
2023/05/08 06:41:49;;;;;;;13.03;12.03;;;;;;;;;;4942266;29;20473;-76
2023/05/08 06:44:15;;;;;;;12.40;11.43;;;;;;;;;;4944108;29;20438;-75
2023/05/08 06:46:41;;;;;;;12.50;11.60;;;;;;;;;;4938806;29;20962;-75
2023/05/08 06:49:07;;;;;;;13.87;12.47;;;;;;;;;;4941549;29;21099;-75
2023/05/08 06:51:38;;;;;;;12.27;11.40;;;;;;;;;;4938190;28;20466;-75
2023/05/08 06:54:07;;;;;;;12.67;11.57;;;;;;;;;;4940685;29;20429;-76
2023/05/08 06:56:34;;;;;;;12.47;11.40;;;;;;;;;;4943130;29;20450;-77
2023/05/08 06:59:00;;;;;;;10.93;10.20;;;;;;;;;;4943664;29;20450;-75
2023/05/08 07:01:27;;;;;;;13.43;12.23;;;;;;;;;;4944838;28;20527;-75
2023/05/08 07:03:53;;;;;;;13.37;12.13;;;;;;;;;;4945219;29;20454;-75
2023/05/08 07:06:19;;;;;;;12.23;11.33;;;;;;;;;;4945214;29;20441;-77
2023/05/08 07:08:45;;;;;;;13.57;11.83;;;;;;;;;;4933850;29;20562;-77
2023/05/08 07:11:11;;;;;;;12.50;11.60;;;;;;;;;;4946761;29;20564;-76
2023/05/08 07:13:37;;;;;;;12.17;11.27;;;;;;;;;;4937528;29;20434;-75
2023/05/08 07:16:08;;;;;;;11.73;10.83;;;;;;;;;;4935740;29;20435;-75
2023/05/08 07:18:34;;;;;;;10.63;9.93;;;;;;;;;;4936282;29;20431;-75
2023/05/08 07:21:00;;;;;;;11.30;10.20;;;;;;;;;;4938303;29;20945;-75
2023/05/08 07:23:26;;;;;;;9.30;8.80;;;;;;;;;;4925950;29;20443;-75
2023/05/08 07:25:53;;;;;;;9.70;9.10;;;;;;;;;;4945638;29;20501;-76
2023/05/08 07:28:21;;;;;;;8.93;8.43;;;;;;;;;;4942210;28;20434;-75
2023/05/08 07:30:47;;;;;;;10.53;9.63;;;;;;;;;;4942847;29;20506;-74
2023/05/08 07:33:13;;;;;;;7.40;6.90;;;;;;;;;;4945819;29;20507;-77
2023/05/08 07:35:40;;;;;;;9.63;9.13;;;;;;;;;;4945289;29;20429;-74
2023/05/08 07:38:06;;;;;;;8.63;7.87;;;;;;;;;;4943548;29;20849;-75
2023/05/08 07:40:32;;;;;;;9.40;8.90;;;;;;;;;;4944023;29;20472;-75
2023/05/08 07:42:58;;;;;;;8.43;7.53;;;;;;;;;;4941876;29;20450;-75
2023/05/08 07:45:24;;;;;;;8.20;7.70;;;;;;;;;;4942405;29;20438;-76
2023/05/08 07:47:51;;;;;;;8.23;7.70;;;;;;;;;;4942256;28;20859;-76
2023/05/08 07:50:17;;;;;;;11.47;8.70;;;;;;;;;;4948321;29;20426;-76
2023/05/08 07:52:44;;;;;;;8.83;8.00;;;;;;;;;;4941529;29;20466;-74
2023/05/08 07:55:13;;;;;;;7.73;7.27;;;;;;;;;;4941041;29;21044;-75
2023/05/08 07:57:40;;;;;;;8.23;7.67;;;;;;;;;;4937435;29;20450;-75
2023/05/08 08:00:07;;;;;;;6.93;6.60;;;;;;;;;;4942319;29;20435;-74
2023/05/08 08:02:33;;;;;;;6.27;6.07;;;;;;;;;;4940614;29;20455;-75
2023/05/08 08:04:59;;;;;;;7.77;7.03;;;;;;;;;;4945192;29;20446;-74
2023/05/08 08:07:26;;;;;;;7.97;7.37;;;;;;;;;;4945292;29;20442;-75
2023/05/08 08:09:52;;;;;;;8.10;7.40;;;;;;;;;;4943683;29;20478;-75
2023/05/08 08:12:19;;;;;;;7.40;7.00;;;;;;;;;;4940171;29;20481;-75
2023/05/08 08:14:49;;;;;;;8.03;7.53;;;;;;;;;;4948316;28;20519;-74
2023/05/08 08:17:16;;;;;;;8.37;7.87;;;;;;;;;;4945408;29;20445;-74
2023/05/08 08:19:42;;;;;;;7.70;7.40;;;;;;;;;;4929505;29;20439;-74
2023/05/08 08:22:11;;;;;;;7.43;7.03;;;;;;;;;;4940895;29;20473;-75
2023/05/08 08:24:38;;;;;;;7.23;6.93;;;;;;;;;;4942735;29;20526;-75
2023/05/08 08:27:04;;;;;;;6.93;6.30;;;;;;;;;;4943664;29;20442;-76
2023/05/08 08:29:30;;;;;;;6.50;6.30;;;;;;;;;;4946358;28;20801;-75
2023/05/08 08:31:56;;;;;;;6.60;6.03;;;;;;;;;;4945786;29;20478;-75
2023/05/08 08:34:23;;;;;;;7.63;7.10;;;;;;;;;;4948835;29;20427;-74
2023/05/08 08:36:49;;;;;;;6.23;5.93;;;;;;;;;;4929522;29;20545;-75
2023/05/08 08:39:15;;;;;;;5.83;5.53;;;;;;;;;;4940450;29;20426;-75
2023/05/08 08:41:41;;;;;;;6.20;6.00;;;;;;;;;;4940532;29;20572;-74
2023/05/08 08:44:07;;;;;;;5.00;4.70;;;;;;;;;;4946197;29;20414;-78
2023/05/08 08:46:33;;;;;;;4.83;4.73;;;;;;;;;;4939178;29;20690;-75
2023/05/08 08:49:02;;;;;;;5.00;4.80;;;;;;;;;;4945705;29;20413;-76
2023/05/08 08:51:32;;;;;;;4.90;4.70;;;;;;;;;;4922547;29;20962;-75
2023/05/08 08:54:04;;;;;;;5.00;4.80;;;;;;;;;;4940416;29;20435;-76
2023/05/08 08:56:31;;;;;;;4.80;4.60;;;;;;;;;;4932425;29;20546;-76
2023/05/08 08:58:58;;;;;;;6.23;5.80;;;;;;;;;;4946632;29;20415;-76
2023/05/08 09:01:26;;;;;;;5.70;5.40;;;;;;;;;;4941607;29;20431;-76
2023/05/08 09:03:52;;;;;;;4.33;4.23;;;;;;;;;;4947293;29;20469;-74
2023/05/08 09:06:18;;;;;;;3.80;3.80;;;;;;;;;;4943657;29;20816;-76
2023/05/08 09:08:45;;;;;;;4.20;4.10;;;;;;;;;;4943818;29;20618;-75
2023/05/08 09:11:11;;;;;;;4.07;3.97;;;;;;;;;;4945136;29;20466;-75
2023/05/08 09:13:37;;;;;;;3.50;3.40;;;;;;;;;;4944807;29;20445;-74
2023/05/08 09:16:03;;;;;;;3.53;3.43;;;;;;;;;;4937607;29;20957;-76
2023/05/08 09:18:29;;;;;;;3.90;3.60;;;;;;;;;;4940107;29;20461;-74
2023/05/08 09:20:55;;;;;;;4.80;4.70;;;;;;;;;;4932660;28;20477;-75
2023/05/08 09:23:21;;;;;;;4.93;4.80;;;;;;;;;;4943263;29;20418;-76
2023/05/08 09:25:47;;;;;;;5.33;5.13;;;;;;;;;;4949179;28;20422;-75
2023/05/08 09:28:18;;;;;;;5.70;5.50;;;;;;;;;;4967286;28;20447;-75
2023/05/08 09:30:54;;;;;;;5.43;5.03;;;;;;;;;;4952055;29;20875;-74
2023/05/08 09:33:21;;;;;;;7.67;7.27;;;;;;;;;;4937026;29;20842;-75
2023/05/08 09:35:47;;;;;;;6.67;6.27;;;;;;;;;;4925608;29;20447;-75
2023/05/08 09:38:35;;;;;;;9.17;8.47;;;;;;;;;;4942539;29;20651;-75
2023/05/08 09:41:15;;;;;;;6.57;6.27;;;;;;;;;;4941038;29;20457;-75
2023/05/08 09:43:42;;;;;;;10.27;9.37;;;;;;;;;;4943334;29;20721;-76
2023/05/08 09:46:24;;;;;;;7.93;7.33;;;;;;;;;;4932999;29;20446;-75
2023/05/08 09:48:51;;;;;;;7.13;6.73;;;;;;;;;;4938361;29;20420;-76
2023/05/08 09:51:20;;;;;;;7.20;6.80;;;;;;;;;;4936948;29;20478;-76
2023/05/08 09:53:46;;;;;;;8.00;7.60;;;;;;;;;;4929673;29;20478;-76
2023/05/08 09:56:12;;;;;;;7.03;6.70;;;;;;;;;;4934972;29;20274;-75
2023/05/08 09:58:44;;;;;;;6.77;6.37;;;;;;;;;;4937489;29;21016;-75
2023/05/08 10:01:27;;;;;;;7.23;6.93;;;;;;;;;;4931049;29;20426;-77
2023/05/08 10:03:53;;;;;;;6.60;6.30;;;;;;;;;;4942084;29;20438;-75
2023/05/08 10:06:19;;;;;;;7.70;7.30;;;;;;;;;;4938814;29;20410;-75
2023/05/08 10:08:47;;;;;;;6.80;6.50;;;;;;;;;;4942836;29;20198;-77
2023/05/08 10:11:16;;;;;;;7.00;6.50;;;;;;;;;;4945117;29;20512;-75
2023/05/08 10:13:43;;;;;;;6.40;6.07;;;;;;;;;;4943262;29;20530;-75
2023/05/08 10:16:13;;;;;;;6.90;6.40;;;;;;;;;;4946750;29;20438;-76
2023/05/08 10:18:42;;;;;;;6.13;5.93;;;;;;;;;;4938804;29;20742;-76
2023/05/08 10:21:08;;;;;;;7.20;6.80;;;;;;;;;;4936124;29;20503;-76
2023/05/08 10:23:34;;;;;;;5.73;5.43;;;;;;;;;;4940728;29;20625;-75
2023/05/08 10:26:05;;;;;;;7.50;7.10;;;;;;;;;;4945995;29;20394;-75
2023/05/08 10:28:34;;;;;;;6.30;6.07;;;;;;;;;;4932554;29;20254;-75
2023/05/08 10:31:00;;;;;;;6.83;6.47;;;;;;;;;;4944491;29;20724;-76
2023/05/08 10:33:30;;;;;;;7.47;7.07;;;;;;;;;;4932833;29;20430;-76
2023/05/08 10:35:56;;;;;;;6.40;6.20;;;;;;;;;;4941257;29;20910;-76
2023/05/08 10:38:22;;;;;;;6.53;6.30;;;;;;;;;;4937795;29;20523;-76
2023/05/08 10:40:51;;;;;;;6.90;6.50;;;;;;;;;;4945386;29;20413;-75
2023/05/08 10:43:18;;;;;;;7.27;6.87;;;;;;;;;;4943074;29;20225;-74
2023/05/08 10:45:44;;;;;;;7.40;6.90;;;;;;;;;;4950075;29;20513;-75
2023/05/08 10:48:20;;;;;;;6.30;6.03;;;;;;;;;;4946502;29;20430;-75
2023/05/08 10:51:05;;;;;;;7.13;6.13;;;;;;;;;;4943982;29;20414;-75
2023/05/08 10:53:40;;;;;;;6.10;5.90;;;;;;;;;;4947666;29;20453;-76
2023/05/08 10:56:06;;;;;;;5.87;5.67;;;;;;;;;;4938003;29;20418;-77
2023/05/08 10:58:33;;;;;;;5.70;5.27;;;;;;;;;;4942874;29;20661;-75
2023/05/08 11:00:59;;;;;;;6.17;5.87;;;;;;;;;;4943371;29;20414;-78
2023/05/08 11:03:29;;;;;;;5.23;5.07;;;;;;;;;;4936999;29;20525;-77
2023/05/08 11:05:56;;;;;;;5.63;5.23;;;;;;;;;;4936437;29;20903;-76
2023/05/08 11:08:26;;;;;;;4.87;4.77;;;;;;;;;;4937893;29;20453;-75
2023/05/08 11:10:59;;;;;;;5.30;5.10;;;;;;;;;;4941346;29;20422;-77
2023/05/08 11:13:42;;;;;;;4.60;4.50;;;;;;;;;;4924291;29;20489;-76
2023/05/08 11:16:10;;;;;;;4.80;4.70;;;;;;;;;;4947444;29;20548;-78
2023/05/08 11:18:37;;;;;;;4.77;4.53;;;;;;;;;;4941825;29;20440;-76
2023/05/08 11:21:05;;;;;;;4.80;4.60;;;;;;;;;;4955538;29;20457;-76
2023/05/08 11:23:32;;;;;;;4.70;4.50;;;;;;;;;;4950966;29;20434;-76
2023/05/08 11:26:00;;;;;;;5.33;4.90;;;;;;;;;;4957914;29;20501;-75
2023/05/08 11:28:26;;;;;;;4.43;4.33;;;;;;;;;;4945044;29;20890;-76
2023/05/08 11:30:55;;;;;;;5.90;5.50;;;;;;;;;;4939732;29;20426;-76
2023/05/08 11:33:21;;;;;;;5.63;5.50;;;;;;;;;;4943416;29;20466;-76
2023/05/08 11:35:56;;;;;;;4.90;4.80;;;;;;;;;;4949985;29;20626;-77
2023/05/08 11:38:36;;;;;;;5.30;5.20;;;;;;;;;;4944796;29;20430;-76
2023/05/08 11:41:03;;;;;;;5.83;5.43;;;;;;;;;;4942065;28;20451;-76
2023/05/08 11:43:41;;;;;;;4.10;4.10;;;;;;;;;;4945376;28;20502;-76
2023/05/08 11:46:17;;;;;;;4.20;4.10;;;;;;;;;;4944685;28;20761;-76
2023/05/08 11:48:43;;;;;;;4.00;4.00;;;;;;;;;;4944598;28;20442;-75
2023/05/08 11:51:09;;;;;;;5.10;4.77;;;;;;;;;;4946794;29;20481;-77
2023/05/08 11:53:36;;;;;;;4.30;4.20;;;;;;;;;;4925908;28;20812;-75
2023/05/08 11:56:02;;;;;;;4.43;4.23;;;;;;;;;;4936312;29;20422;-76
2023/05/08 11:58:28;;;;;;;4.90;4.70;;;;;;;;;;4946144;28;20589;-76
2023/05/08 12:00:54;;;;;;;5.33;4.93;;;;;;;;;;4939820;29;20429;-77
2023/05/08 12:03:21;;;;;;;4.40;4.30;;;;;;;;;;4954687;28;20437;-77
2023/05/08 12:05:49;;;;;;;5.20;4.97;;;;;;;;;;4942638;29;20696;-75
2023/05/08 12:08:16;;;;;;;4.97;4.40;;;;;;;;;;4948559;28;20813;-75
2023/05/08 12:10:48;;;;;;;4.77;4.33;;;;;;;;;;4943570;28;20815;-75
2023/05/08 12:13:21;;;;;;;4.77;4.67;;;;;;;;;;4940211;28;20467;-75
2023/05/08 12:15:48;;;;;;;3.30;3.10;;;;;;;;;;4948067;28;20677;-75
2023/05/08 12:18:15;;;;;;;3.70;3.53;;;;;;;;;;4949129;28;20454;-75
2023/05/08 12:20:42;;;;;;;2.90;2.90;;;;;;;;;;4952106;28;20532;-76
2023/05/08 12:23:09;;;;;;;3.50;3.40;;;;;;;;;;4949412;28;20419;-76
2023/05/08 12:25:36;;;;;;;4.83;4.73;;;;;;;;;;4956593;28;20726;-74
2023/05/08 12:28:02;;;;;;;4.30;4.30;;;;;;;;;;4949275;28;20446;-74
2023/05/08 12:30:28;;;;;;;5.07;4.77;;;;;;;;;;4960882;28;20434;-74
2023/05/08 12:32:55;;;;;;;4.30;4.30;;;;;;;;;;4946169;28;20789;-73
2023/05/08 12:35:21;;;;;;;3.37;3.37;;;;;;;;;;4932425;29;20485;-75
2023/05/08 12:37:47;;;;;;;3.23;3.13;;;;;;;;;;4936992;28;20707;-74
2023/05/08 12:40:30;;;;;;;4.23;4.10;;;;;;;;;;4957254;28;20520;-74
2023/05/08 12:42:56;;;;;;;4.27;4.17;;;;;;;;;;4943207;29;20442;-75
2023/05/08 12:45:27;;;;;;;4.07;3.97;;;;;;;;;;4947622;29;20434;-75
2023/05/08 12:47:55;;;;;;;5.30;5.00;;;;;;;;;;4938141;29;20946;-75
2023/05/08 12:50:21;;;;;;;5.90;5.50;;;;;;;;;;4948122;29;20504;-75
2023/05/08 12:52:48;;;;;;;3.93;3.83;;;;;;;;;;4944463;29;20477;-74
2023/05/08 12:55:27;;;;;;;3.70;3.70;;;;;;;;;;4924567;29;20450;-75
2023/05/08 12:58:00;;;;;;;4.97;4.87;;;;;;;;;;4944227;29;20958;-74
2023/05/08 13:00:35;;;;;;;3.87;3.77;;;;;;;;;;4942985;28;20441;-74
2023/05/08 13:03:01;;;;;;;3.30;3.20;;;;;;;;;;4932841;29;20438;-74
2023/05/08 13:05:27;;;;;;;3.83;3.73;;;;;;;;;;4945266;29;20442;-74
2023/05/08 13:07:58;;;;;;;4.07;3.97;;;;;;;;;;4937148;29;20430;-74
2023/05/08 13:10:24;;;;;;;3.63;3.63;;;;;;;;;;4937007;28;20428;-74
2023/05/08 13:12:51;;;;;;;3.97;3.83;;;;;;;;;;4938704;29;20463;-74
2023/05/08 13:15:17;;;;;;;3.70;3.70;;;;;;;;;;4941905;29;20434;-75
2023/05/08 13:17:43;;;;;;;3.73;3.67;;;;;;;;;;4937455;29;20478;-74
2023/05/08 13:20:10;;;;;;;3.40;3.33;;;;;;;;;;4971111;29;20481;-75
2023/05/08 13:22:37;;;;;;;3.23;3.23;;;;;;;;;;4943538;29;20532;-74
2023/05/08 13:25:03;;;;;;;3.47;3.37;;;;;;;;;;4941919;29;20506;-74
2023/05/08 13:27:29;;;;;;;3.57;3.50;;;;;;;;;;4943020;29;20458;-74
2023/05/08 13:29:55;;;;;;;3.80;3.70;;;;;;;;;;4942220;28;20481;-75
2023/05/08 13:32:21;;;;;;;4.27;3.90;;;;;;;;;;4937527;29;20917;-74
2023/05/08 13:34:47;;;;;;;3.40;3.30;;;;;;;;;;4938622;29;20552;-75
2023/05/08 13:37:13;;;;;;;3.60;3.53;;;;;;;;;;4939549;29;20879;-74
2023/05/08 13:39:39;;;;;;;3.60;3.50;;;;;;;;;;4944002;29;20478;-75
2023/05/08 13:42:05;;;;;;;3.90;3.80;;;;;;;;;;4938879;29;20461;-74
2023/05/08 13:44:31;;;;;;;3.50;3.50;;;;;;;;;;4941765;29;20430;-75
2023/05/08 13:46:58;;;;;;;3.83;3.83;;;;;;;;;;4941435;29;20448;-75
2023/05/08 13:49:25;;;;;;;3.47;3.37;;;;;;;;;;4944368;29;20426;-74
2023/05/08 13:51:51;;;;;;;4.67;4.57;;;;;;;;;;4935532;29;20648;-74
2023/05/08 13:54:17;;;;;;;5.27;5.17;;;;;;;;;;4937752;29;20508;-76
2023/05/08 13:56:43;;;;;;;4.43;4.13;;;;;;;;;;4935948;29;20452;-75
2023/05/08 13:59:09;;;;;;;5.27;5.10;;;;;;;;;;4936675;29;20478;-74
2023/05/08 14:01:35;;;;;;;4.43;4.27;;;;;;;;;;4932677;29;20829;-73
2023/05/08 14:04:01;;;;;;;4.90;4.73;;;;;;;;;;4942309;29;20493;-74
2023/05/08 14:06:27;;;;;;;5.03;4.93;;;;;;;;;;4943892;29;20441;-74
2023/05/08 14:08:53;;;;;;;5.27;5.17;;;;;;;;;;4936972;29;20511;-73
2023/05/08 14:11:19;;;;;;;4.23;4.13;;;;;;;;;;4943597;28;20426;-74
2023/05/08 14:13:45;;;;;;;4.60;4.20;;;;;;;;;;4946997;29;20418;-73
2023/05/08 14:16:13;;;;;;;4.40;4.20;;;;;;;;;;4941048;29;20446;-74
2023/05/08 14:18:39;;;;;;;5.50;5.30;;;;;;;;;;4948835;29;20419;-74
2023/05/08 14:21:05;;;;;;;4.10;3.90;;;;;;;;;;4945629;29;20526;-74
2023/05/08 14:23:31;;;;;;;3.73;3.63;;;;;;;;;;4943469;29;20475;-75
2023/05/08 14:25:57;;;;;;;3.80;3.80;;;;;;;;;;4948822;29;20472;-75
2023/05/08 14:28:23;;;;;;;4.47;4.17;;;;;;;;;;4946975;28;20454;-74
2023/05/08 14:30:49;;;;;;;4.97;4.73;;;;;;;;;;4950188;29;20444;-73
2023/05/08 14:33:15;;;;;;;5.10;4.90;;;;;;;;;;4945739;29;20474;-74
2023/05/08 14:35:46;;;;;;;4.90;4.80;;;;;;;;;;4949122;29;20846;-75